sensor_id;sensor_type;location;lat;lon;timestamp;P1;durP1;ratioP1;P2;durP2;ratioP2
49540;SDS011;35432;43.566;1.398;2023-03-29T00:01:45;7.20;;;1.00;;
49540;SDS011;35432;43.566;1.398;2023-03-29T00:04:12;6.38;;;1.00;;
49540;SDS011;35432;43.566;1.398;2023-03-29T00:06:37;4.20;;;0.90;;
49540;SDS011;35432;43.566;1.398;2023-03-29T00:09:03;3.78;;;0.80;;
49540;SDS011;35432;43.566;1.398;2023-03-29T00:11:33;3.87;;;0.80;;
49540;SDS011;35432;43.566;1.398;2023-03-29T00:13:59;4.68;;;0.98;;
49540;SDS011;35432;43.566;1.398;2023-03-29T00:16:24;4.27;;;1.07;;
49540;SDS011;35432;43.566;1.398;2023-03-29T00:18:50;3.95;;;1.00;;
49540;SDS011;35432;43.566;1.398;2023-03-29T00:21:15;5.57;;;0.83;;
49540;SDS011;35432;43.566;1.398;2023-03-29T00:23:41;3.47;;;0.80;;
49540;SDS011;35432;43.566;1.398;2023-03-29T00:26:06;4.32;;;1.10;;
49540;SDS011;35432;43.566;1.398;2023-03-29T00:28:32;5.10;;;1.17;;
49540;SDS011;35432;43.566;1.398;2023-03-29T00:31:04;3.97;;;1.00;;
49540;SDS011;35432;43.566;1.398;2023-03-29T00:33:31;6.05;;;0.90;;
49540;SDS011;35432;43.566;1.398;2023-03-29T00:35:57;5.13;;;0.82;;
49540;SDS011;35432;43.566;1.398;2023-03-29T00:38:22;9.20;;;1.13;;
49540;SDS011;35432;43.566;1.398;2023-03-29T00:40:47;5.20;;;0.83;;
49540;SDS011;35432;43.566;1.398;2023-03-29T00:43:13;7.67;;;0.93;;
49540;SDS011;35432;43.566;1.398;2023-03-29T00:45:39;4.65;;;1.17;;
49540;SDS011;35432;43.566;1.398;2023-03-29T00:48:06;8.18;;;2.20;;
49540;SDS011;35432;43.566;1.398;2023-03-29T00:50:36;4.87;;;0.70;;
49540;SDS011;35432;43.566;1.398;2023-03-29T00:53:16;5.30;;;0.90;;
49540;SDS011;35432;43.566;1.398;2023-03-29T00:55:47;8.68;;;2.20;;
49540;SDS011;35432;43.566;1.398;2023-03-29T00:58:27;5.38;;;1.10;;
49540;SDS011;35432;43.566;1.398;2023-03-29T01:01:08;4.95;;;0.70;;
49540;SDS011;35432;43.566;1.398;2023-03-29T01:03:41;4.10;;;0.87;;
49540;SDS011;35432;43.566;1.398;2023-03-29T01:06:13;5.90;;;0.75;;
49540;SDS011;35432;43.566;1.398;2023-03-29T01:08:46;4.38;;;0.80;;
49540;SDS011;35432;43.566;1.398;2023-03-29T01:11:19;7.03;;;1.02;;
49540;SDS011;35432;43.566;1.398;2023-03-29T01:16:27;8.10;;;1.83;;
49540;SDS011;35432;43.566;1.398;2023-03-29T01:18:55;6.65;;;0.90;;
49540;SDS011;35432;43.566;1.398;2023-03-29T01:21:26;5.00;;;1.00;;
49540;SDS011;35432;43.566;1.398;2023-03-29T01:26:38;5.28;;;0.90;;
49540;SDS011;35432;43.566;1.398;2023-03-29T01:29:24;3.57;;;0.83;;
49540;SDS011;35432;43.566;1.398;2023-03-29T01:31:57;3.92;;;0.80;;
49540;SDS011;35432;43.566;1.398;2023-03-29T01:37:04;5.50;;;0.70;;
49540;SDS011;35432;43.566;1.398;2023-03-29T01:39:38;4.32;;;0.80;;
49540;SDS011;35432;43.566;1.398;2023-03-29T01:44:48;7.28;;;0.90;;
49540;SDS011;35432;43.566;1.398;2023-03-29T01:47:29;6.40;;;1.75;;
49540;SDS011;35432;43.566;1.398;2023-03-29T01:50:06;5.10;;;1.50;;
49540;SDS011;35432;43.566;1.398;2023-03-29T01:56:04;6.07;;;1.08;;
49540;SDS011;35432;43.566;1.398;2023-03-29T01:58:36;3.90;;;0.70;;
49540;SDS011;35432;43.566;1.398;2023-03-29T02:01:05;5.45;;;0.70;;
49540;SDS011;35432;43.566;1.398;2023-03-29T02:03:34;7.32;;;0.88;;
49540;SDS011;35432;43.566;1.398;2023-03-29T02:06:07;5.47;;;0.93;;
49540;SDS011;35432;43.566;1.398;2023-03-29T02:08:35;4.63;;;0.82;;
49540;SDS011;35432;43.566;1.398;2023-03-29T02:11:03;4.95;;;1.10;;
49540;SDS011;35432;43.566;1.398;2023-03-29T02:13:29;3.95;;;0.90;;
49540;SDS011;35432;43.566;1.398;2023-03-29T02:15:55;4.53;;;0.80;;
49540;SDS011;35432;43.566;1.398;2023-03-29T02:18:20;4.63;;;0.90;;
49540;SDS011;35432;43.566;1.398;2023-03-29T02:20:47;6.95;;;0.93;;
49540;SDS011;35432;43.566;1.398;2023-03-29T02:25:52;3.77;;;0.70;;
49540;SDS011;35432;43.566;1.398;2023-03-29T02:28:18;4.93;;;0.85;;
49540;SDS011;35432;43.566;1.398;2023-03-29T02:36:29;4.82;;;0.80;;
49540;SDS011;35432;43.566;1.398;2023-03-29T02:38:59;6.17;;;0.90;;
49540;SDS011;35432;43.566;1.398;2023-03-29T02:41:28;5.82;;;0.82;;
49540;SDS011;35432;43.566;1.398;2023-03-29T02:43:54;4.90;;;0.60;;
49540;SDS011;35432;43.566;1.398;2023-03-29T02:46:22;4.65;;;0.90;;
49540;SDS011;35432;43.566;1.398;2023-03-29T02:48:48;4.53;;;0.80;;
49540;SDS011;35432;43.566;1.398;2023-03-29T02:51:17;4.32;;;0.60;;
49540;SDS011;35432;43.566;1.398;2023-03-29T02:54:08;7.43;;;0.93;;
49540;SDS011;35432;43.566;1.398;2023-03-29T02:56:43;5.07;;;0.73;;
49540;SDS011;35432;43.566;1.398;2023-03-29T02:59:10;4.00;;;0.68;;
49540;SDS011;35432;43.566;1.398;2023-03-29T03:04:02;4.75;;;0.90;;
49540;SDS011;35432;43.566;1.398;2023-03-29T03:06:27;5.20;;;0.77;;
49540;SDS011;35432;43.566;1.398;2023-03-29T03:08:53;6.70;;;0.77;;
49540;SDS011;35432;43.566;1.398;2023-03-29T03:11:18;4.03;;;0.90;;
49540;SDS011;35432;43.566;1.398;2023-03-29T03:13:44;6.13;;;1.20;;
49540;SDS011;35432;43.566;1.398;2023-03-29T03:16:09;4.85;;;0.75;;
49540;SDS011;35432;43.566;1.398;2023-03-29T03:18:35;3.63;;;0.60;;
49540;SDS011;35432;43.566;1.398;2023-03-29T03:21:00;5.93;;;0.80;;
49540;SDS011;35432;43.566;1.398;2023-03-29T03:23:26;6.00;;;0.80;;
49540;SDS011;35432;43.566;1.398;2023-03-29T03:25:53;3.47;;;0.70;;
49540;SDS011;35432;43.566;1.398;2023-03-29T03:28:19;5.90;;;0.90;;
49540;SDS011;35432;43.566;1.398;2023-03-29T03:30:46;3.28;;;0.50;;
49540;SDS011;35432;43.566;1.398;2023-03-29T03:33:12;6.17;;;0.70;;
49540;SDS011;35432;43.566;1.398;2023-03-29T03:35:37;5.88;;;1.00;;
49540;SDS011;35432;43.566;1.398;2023-03-29T03:38:03;6.57;;;0.80;;
49540;SDS011;35432;43.566;1.398;2023-03-29T03:40:30;7.22;;;0.90;;
49540;SDS011;35432;43.566;1.398;2023-03-29T03:42:56;4.55;;;0.70;;
49540;SDS011;35432;43.566;1.398;2023-03-29T03:45:22;6.07;;;0.80;;
49540;SDS011;35432;43.566;1.398;2023-03-29T03:47:49;4.78;;;0.60;;
49540;SDS011;35432;43.566;1.398;2023-03-29T03:50:15;6.15;;;0.90;;
49540;SDS011;35432;43.566;1.398;2023-03-29T03:52:41;7.85;;;0.90;;
49540;SDS011;35432;43.566;1.398;2023-03-29T03:55:07;5.97;;;1.10;;
49540;SDS011;35432;43.566;1.398;2023-03-29T03:57:33;4.38;;;1.00;;
49540;SDS011;35432;43.566;1.398;2023-03-29T04:00:01;5.32;;;1.38;;
49540;SDS011;35432;43.566;1.398;2023-03-29T04:02:48;4.73;;;0.83;;
49540;SDS011;35432;43.566;1.398;2023-03-29T04:05:15;5.35;;;1.33;;
49540;SDS011;35432;43.566;1.398;2023-03-29T04:07:41;5.28;;;0.80;;
49540;SDS011;35432;43.566;1.398;2023-03-29T04:10:07;9.83;;;1.17;;
49540;SDS011;35432;43.566;1.398;2023-03-29T04:12:36;7.10;;;1.00;;
49540;SDS011;35432;43.566;1.398;2023-03-29T04:15:02;5.68;;;1.17;;
49540;SDS011;35432;43.566;1.398;2023-03-29T04:17:29;4.75;;;0.80;;
49540;SDS011;35432;43.566;1.398;2023-03-29T04:19:54;6.53;;;0.93;;
49540;SDS011;35432;43.566;1.398;2023-03-29T04:22:21;9.73;;;1.30;;
49540;SDS011;35432;43.566;1.398;2023-03-29T04:24:47;4.80;;;0.93;;
49540;SDS011;35432;43.566;1.398;2023-03-29T04:27:12;7.90;;;1.00;;
49540;SDS011;35432;43.566;1.398;2023-03-29T04:29:38;4.40;;;0.90;;
49540;SDS011;35432;43.566;1.398;2023-03-29T04:32:03;9.83;;;1.07;;
49540;SDS011;35432;43.566;1.398;2023-03-29T04:34:28;5.82;;;1.20;;
49540;SDS011;35432;43.566;1.398;2023-03-29T04:36:54;5.07;;;0.80;;
49540;SDS011;35432;43.566;1.398;2023-03-29T04:39:20;3.92;;;0.90;;
49540;SDS011;35432;43.566;1.398;2023-03-29T04:41:45;4.33;;;0.87;;
49540;SDS011;35432;43.566;1.398;2023-03-29T04:44:11;7.57;;;1.00;;
49540;SDS011;35432;43.566;1.398;2023-03-29T04:46:38;6.80;;;1.40;;
49540;SDS011;35432;43.566;1.398;2023-03-29T04:49:04;8.23;;;1.52;;
49540;SDS011;35432;43.566;1.398;2023-03-29T04:51:30;6.82;;;1.38;;
49540;SDS011;35432;43.566;1.398;2023-03-29T04:53:57;8.77;;;2.77;;
49540;SDS011;35432;43.566;1.398;2023-03-29T04:56:23;8.13;;;1.90;;
49540;SDS011;35432;43.566;1.398;2023-03-29T04:58:48;6.13;;;1.70;;
49540;SDS011;35432;43.566;1.398;2023-03-29T05:01:14;7.63;;;1.38;;
49540;SDS011;35432;43.566;1.398;2023-03-29T05:03:39;6.87;;;1.20;;
49540;SDS011;35432;43.566;1.398;2023-03-29T05:06:07;11.18;;;1.45;;
49540;SDS011;35432;43.566;1.398;2023-03-29T05:08:34;6.93;;;1.10;;
49540;SDS011;35432;43.566;1.398;2023-03-29T05:11:04;8.60;;;1.23;;
49540;SDS011;35432;43.566;1.398;2023-03-29T05:13:31;6.55;;;1.20;;
49540;SDS011;35432;43.566;1.398;2023-03-29T05:15:57;8.00;;;1.40;;
49540;SDS011;35432;43.566;1.398;2023-03-29T05:18:24;8.98;;;1.30;;
49540;SDS011;35432;43.566;1.398;2023-03-29T05:20:50;6.25;;;1.10;;
49540;SDS011;35432;43.566;1.398;2023-03-29T05:23:17;7.10;;;1.30;;
49540;SDS011;35432;43.566;1.398;2023-03-29T05:25:42;6.68;;;1.23;;
49540;SDS011;35432;43.566;1.398;2023-03-29T05:28:08;9.13;;;1.10;;
49540;SDS011;35432;43.566;1.398;2023-03-29T05:30:33;6.50;;;1.20;;
49540;SDS011;35432;43.566;1.398;2023-03-29T05:33:00;9.18;;;1.60;;
49540;SDS011;35432;43.566;1.398;2023-03-29T05:35:26;5.43;;;1.10;;
49540;SDS011;35432;43.566;1.398;2023-03-29T05:37:53;9.75;;;1.48;;
49540;SDS011;35432;43.566;1.398;2023-03-29T05:40:19;7.68;;;1.30;;
49540;SDS011;35432;43.566;1.398;2023-03-29T05:42:44;9.03;;;1.20;;
49540;SDS011;35432;43.566;1.398;2023-03-29T05:45:10;6.50;;;1.27;;
49540;SDS011;35432;43.566;1.398;2023-03-29T05:47:35;7.67;;;1.17;;
49540;SDS011;35432;43.566;1.398;2023-03-29T05:50:01;9.10;;;1.20;;
49540;SDS011;35432;43.566;1.398;2023-03-29T05:52:26;3.92;;;1.35;;
49540;SDS011;35432;43.566;1.398;2023-03-29T05:54:52;8.93;;;1.57;;
49540;SDS011;35432;43.566;1.398;2023-03-29T05:57:17;6.13;;;1.30;;
49540;SDS011;35432;43.566;1.398;2023-03-29T05:59:43;10.05;;;1.50;;
49540;SDS011;35432;43.566;1.398;2023-03-29T06:02:09;9.27;;;1.60;;
49540;SDS011;35432;43.566;1.398;2023-03-29T06:04:36;9.98;;;1.73;;
49540;SDS011;35432;43.566;1.398;2023-03-29T06:07:02;6.18;;;1.35;;
49540;SDS011;35432;43.566;1.398;2023-03-29T06:09:29;8.63;;;1.70;;
49540;SDS011;35432;43.566;1.398;2023-03-29T06:11:56;7.78;;;1.65;;
49540;SDS011;35432;43.566;1.398;2023-03-29T06:14:22;5.90;;;1.13;;
49540;SDS011;35432;43.566;1.398;2023-03-29T06:16:49;14.13;;;1.63;;
49540;SDS011;35432;43.566;1.398;2023-03-29T06:19:15;5.80;;;1.33;;
49540;SDS011;35432;43.566;1.398;2023-03-29T06:21:41;7.47;;;1.47;;
49540;SDS011;35432;43.566;1.398;2023-03-29T06:24:06;8.65;;;1.70;;
49540;SDS011;35432;43.566;1.398;2023-03-29T06:26:32;9.33;;;1.87;;
49540;SDS011;35432;43.566;1.398;2023-03-29T06:28:58;8.45;;;2.03;;
49540;SDS011;35432;43.566;1.398;2023-03-29T06:31:23;10.93;;;1.30;;
49540;SDS011;35432;43.566;1.398;2023-03-29T06:33:49;13.60;;;1.53;;
49540;SDS011;35432;43.566;1.398;2023-03-29T06:36:14;5.47;;;1.08;;
49540;SDS011;35432;43.566;1.398;2023-03-29T06:38:41;13.03;;;1.50;;
49540;SDS011;35432;43.566;1.398;2023-03-29T06:41:07;9.15;;;1.20;;
49540;SDS011;35432;43.566;1.398;2023-03-29T06:43:35;8.82;;;1.42;;
49540;SDS011;35432;43.566;1.398;2023-03-29T06:46:01;8.57;;;1.50;;
49540;SDS011;35432;43.566;1.398;2023-03-29T06:48:26;10.03;;;1.70;;
49540;SDS011;35432;43.566;1.398;2023-03-29T06:50:52;7.15;;;1.60;;
49540;SDS011;35432;43.566;1.398;2023-03-29T06:53:18;8.55;;;1.60;;
49540;SDS011;35432;43.566;1.398;2023-03-29T06:55:46;12.20;;;1.20;;
49540;SDS011;35432;43.566;1.398;2023-03-29T06:58:11;8.00;;;1.40;;
49540;SDS011;35432;43.566;1.398;2023-03-29T07:00:37;10.07;;;2.28;;
49540;SDS011;35432;43.566;1.398;2023-03-29T07:03:06;8.67;;;1.20;;
49540;SDS011;35432;43.566;1.398;2023-03-29T07:05:34;6.97;;;1.33;;
49540;SDS011;35432;43.566;1.398;2023-03-29T07:08:04;7.13;;;1.40;;
49540;SDS011;35432;43.566;1.398;2023-03-29T07:10:31;7.73;;;1.60;;
49540;SDS011;35432;43.566;1.398;2023-03-29T07:13:02;7.28;;;1.35;;
49540;SDS011;35432;43.566;1.398;2023-03-29T07:15:30;6.47;;;1.23;;
49540;SDS011;35432;43.566;1.398;2023-03-29T07:17:56;8.37;;;1.47;;
49540;SDS011;35432;43.566;1.398;2023-03-29T07:20:22;6.32;;;1.20;;
49540;SDS011;35432;43.566;1.398;2023-03-29T07:22:49;6.63;;;0.88;;
49540;SDS011;35432;43.566;1.398;2023-03-29T07:25:19;5.45;;;0.90;;
49540;SDS011;35432;43.566;1.398;2023-03-29T07:27:46;7.27;;;1.10;;
49540;SDS011;35432;43.566;1.398;2023-03-29T07:30:16;8.00;;;1.20;;
49540;SDS011;35432;43.566;1.398;2023-03-29T07:32:44;8.13;;;0.98;;
49540;SDS011;35432;43.566;1.398;2023-03-29T07:35:10;7.72;;;1.00;;
49540;SDS011;35432;43.566;1.398;2023-03-29T07:37:37;8.57;;;1.00;;
49540;SDS011;35432;43.566;1.398;2023-03-29T07:40:05;6.10;;;1.20;;
49540;SDS011;35432;43.566;1.398;2023-03-29T07:42:54;7.28;;;0.90;;
49540;SDS011;35432;43.566;1.398;2023-03-29T07:45:21;7.63;;;1.23;;
49540;SDS011;35432;43.566;1.398;2023-03-29T07:47:49;6.85;;;1.10;;
49540;SDS011;35432;43.566;1.398;2023-03-29T07:50:17;9.93;;;1.15;;
49540;SDS011;35432;43.566;1.398;2023-03-29T07:52:43;10.50;;;1.70;;
49540;SDS011;35432;43.566;1.398;2023-03-29T07:55:10;6.43;;;1.30;;
49540;SDS011;35432;43.566;1.398;2023-03-29T07:57:37;6.33;;;1.20;;
49540;SDS011;35432;43.566;1.398;2023-03-29T08:00:04;5.88;;;1.20;;
49540;SDS011;35432;43.566;1.398;2023-03-29T08:02:39;6.72;;;1.55;;
49540;SDS011;35432;43.566;1.398;2023-03-29T08:05:04;6.18;;;1.10;;
49540;SDS011;35432;43.566;1.398;2023-03-29T08:07:30;5.77;;;1.17;;
49540;SDS011;35432;43.566;1.398;2023-03-29T08:09:56;6.38;;;1.30;;
49540;SDS011;35432;43.566;1.398;2023-03-29T08:12:22;7.38;;;1.50;;
49540;SDS011;35432;43.566;1.398;2023-03-29T08:14:48;6.93;;;1.40;;
49540;SDS011;35432;43.566;1.398;2023-03-29T08:17:13;5.90;;;1.20;;
49540;SDS011;35432;43.566;1.398;2023-03-29T08:19:38;6.40;;;1.30;;
49540;SDS011;35432;43.566;1.398;2023-03-29T08:22:04;8.20;;;1.40;;
49540;SDS011;35432;43.566;1.398;2023-03-29T08:24:29;7.27;;;1.40;;
49540;SDS011;35432;43.566;1.398;2023-03-29T08:26:55;5.90;;;1.30;;
49540;SDS011;35432;43.566;1.398;2023-03-29T08:29:20;8.38;;;1.55;;
49540;SDS011;35432;43.566;1.398;2023-03-29T08:31:46;7.47;;;0.90;;
49540;SDS011;35432;43.566;1.398;2023-03-29T08:34:12;5.47;;;0.90;;
49540;SDS011;35432;43.566;1.398;2023-03-29T08:36:37;7.85;;;1.10;;
49540;SDS011;35432;43.566;1.398;2023-03-29T08:39:04;6.50;;;1.02;;
49540;SDS011;35432;43.566;1.398;2023-03-29T08:49:41;6.45;;;1.20;;
49540;SDS011;35432;43.566;1.398;2023-03-29T08:52:30;5.18;;;1.10;;
49540;SDS011;35432;43.566;1.398;2023-03-29T08:55:06;9.07;;;1.27;;
49540;SDS011;35432;43.566;1.398;2023-03-29T08:57:42;8.52;;;1.20;;
49540;SDS011;35432;43.566;1.398;2023-03-29T09:00:16;10.23;;;1.30;;
49540;SDS011;35432;43.566;1.398;2023-03-29T09:02:46;6.00;;;1.40;;
49540;SDS011;35432;43.566;1.398;2023-03-29T09:07:51;7.50;;;0.90;;
49540;SDS011;35432;43.566;1.398;2023-03-29T09:10:17;6.32;;;1.40;;
49540;SDS011;35432;43.566;1.398;2023-03-29T09:15:43;7.10;;;1.25;;
49540;SDS011;35432;43.566;1.398;2023-03-29T09:18:31;4.70;;;0.80;;
49540;SDS011;35432;43.566;1.398;2023-03-29T09:26:39;7.70;;;1.52;;
49540;SDS011;35432;43.566;1.398;2023-03-29T09:31:55;6.32;;;1.23;;
49540;SDS011;35432;43.566;1.398;2023-03-29T09:34:33;7.10;;;1.17;;
49540;SDS011;35432;43.566;1.398;2023-03-29T09:37:07;6.57;;;1.40;;
49540;SDS011;35432;43.566;1.398;2023-03-29T09:39:46;6.70;;;1.40;;
49540;SDS011;35432;43.566;1.398;2023-03-29T09:42:13;6.50;;;1.25;;
49540;SDS011;35432;43.566;1.398;2023-03-29T09:44:51;8.33;;;1.10;;
49540;SDS011;35432;43.566;1.398;2023-03-29T09:47:26;8.85;;;1.52;;
49540;SDS011;35432;43.566;1.398;2023-03-29T09:50:08;7.35;;;1.30;;
49540;SDS011;35432;43.566;1.398;2023-03-29T09:52:37;7.82;;;1.50;;
49540;SDS011;35432;43.566;1.398;2023-03-29T09:55:03;6.23;;;1.30;;
49540;SDS011;35432;43.566;1.398;2023-03-29T09:57:30;6.85;;;1.60;;
49540;SDS011;35432;43.566;1.398;2023-03-29T09:59:56;10.23;;;1.93;;
49540;SDS011;35432;43.566;1.398;2023-03-29T10:02:23;6.53;;;1.40;;
49540;SDS011;35432;43.566;1.398;2023-03-29T10:04:54;8.10;;;1.67;;
49540;SDS011;35432;43.566;1.398;2023-03-29T10:07:20;7.63;;;1.40;;
49540;SDS011;35432;43.566;1.398;2023-03-29T10:09:46;7.28;;;1.30;;
49540;SDS011;35432;43.566;1.398;2023-03-29T10:12:15;10.43;;;1.50;;
49540;SDS011;35432;43.566;1.398;2023-03-29T10:14:42;9.10;;;1.50;;
49540;SDS011;35432;43.566;1.398;2023-03-29T10:17:20;7.03;;;1.55;;
49540;SDS011;35432;43.566;1.398;2023-03-29T10:19:51;7.13;;;1.38;;
49540;SDS011;35432;43.566;1.398;2023-03-29T10:22:22;9.60;;;1.58;;
49540;SDS011;35432;43.566;1.398;2023-03-29T10:24:55;7.45;;;1.50;;
49540;SDS011;35432;43.566;1.398;2023-03-29T10:27:27;5.33;;;1.30;;
49540;SDS011;35432;43.566;1.398;2023-03-29T10:29:57;8.52;;;1.75;;
49540;SDS011;35432;43.566;1.398;2023-03-29T10:32:26;4.88;;;1.10;;
49540;SDS011;35432;43.566;1.398;2023-03-29T10:35:08;8.70;;;1.88;;
49540;SDS011;35432;43.566;1.398;2023-03-29T10:37:41;8.20;;;1.73;;
49540;SDS011;35432;43.566;1.398;2023-03-29T10:40:53;7.23;;;1.63;;
49540;SDS011;35432;43.566;1.398;2023-03-29T10:43:09;7.65;;;1.42;;
49540;SDS011;35432;43.566;1.398;2023-03-29T10:45:48;8.52;;;1.40;;
49540;SDS011;35432;43.566;1.398;2023-03-29T10:48:26;7.18;;;1.40;;
49540;SDS011;35432;43.566;1.398;2023-03-29T10:50:56;7.65;;;1.35;;
49540;SDS011;35432;43.566;1.398;2023-03-29T10:53:24;8.17;;;1.40;;
49540;SDS011;35432;43.566;1.398;2023-03-29T10:58:55;8.77;;;1.50;;
49540;SDS011;35432;43.566;1.398;2023-03-29T11:04:20;8.13;;;1.70;;
49540;SDS011;35432;43.566;1.398;2023-03-29T11:07:03;11.57;;;1.40;;
49540;SDS011;35432;43.566;1.398;2023-03-29T11:15:12;7.00;;;1.60;;
49540;SDS011;35432;43.566;1.398;2023-03-29T11:20:36;8.70;;;1.90;;
49540;SDS011;35432;43.566;1.398;2023-03-29T11:28:20;9.63;;;1.60;;
49540;SDS011;35432;43.566;1.398;2023-03-29T11:34:13;8.87;;;1.17;;
49540;SDS011;35432;43.566;1.398;2023-03-29T11:41:54;11.20;;;1.73;;
49540;SDS011;35432;43.566;1.398;2023-03-29T11:44:29;9.93;;;1.65;;
49540;SDS011;35432;43.566;1.398;2023-03-29T11:47:02;10.00;;;1.70;;
49540;SDS011;35432;43.566;1.398;2023-03-29T11:49:33;11.07;;;1.98;;
49540;SDS011;35432;43.566;1.398;2023-03-29T11:54:32;8.30;;;1.40;;
49540;SDS011;35432;43.566;1.398;2023-03-29T11:59:40;9.13;;;1.77;;
49540;SDS011;35432;43.566;1.398;2023-03-29T12:04:57;8.95;;;1.38;;
49540;SDS011;35432;43.566;1.398;2023-03-29T12:07:28;7.75;;;1.23;;
49540;SDS011;35432;43.566;1.398;2023-03-29T12:10:33;7.95;;;1.33;;
49540;SDS011;35432;43.566;1.398;2023-03-29T12:15:42;10.10;;;1.90;;
49540;SDS011;35432;43.566;1.398;2023-03-29T12:18:21;10.27;;;1.42;;
49540;SDS011;35432;43.566;1.398;2023-03-29T12:20:56;7.10;;;1.40;;
49540;SDS011;35432;43.566;1.398;2023-03-29T12:23:24;8.40;;;1.52;;
49540;SDS011;35432;43.566;1.398;2023-03-29T12:38:59;8.63;;;1.50;;
49540;SDS011;35432;43.566;1.398;2023-03-29T12:41:25;9.07;;;1.95;;
49540;SDS011;35432;43.566;1.398;2023-03-29T12:43:52;10.73;;;1.70;;
49540;SDS011;35432;43.566;1.398;2023-03-29T12:46:19;10.30;;;1.90;;
49540;SDS011;35432;43.566;1.398;2023-03-29T12:48:50;9.20;;;1.42;;
49540;SDS011;35432;43.566;1.398;2023-03-29T12:51:21;11.77;;;1.67;;
49540;SDS011;35432;43.566;1.398;2023-03-29T12:53:54;10.55;;;1.70;;
49540;SDS011;35432;43.566;1.398;2023-03-29T12:56:52;12.00;;;1.85;;
49540;SDS011;35432;43.566;1.398;2023-03-29T13:02:18;7.57;;;1.73;;
49540;SDS011;35432;43.566;1.398;2023-03-29T13:04:57;10.23;;;1.60;;
49540;SDS011;35432;43.566;1.398;2023-03-29T13:07:27;6.45;;;1.67;;
49540;SDS011;35432;43.566;1.398;2023-03-29T13:10:27;9.35;;;1.70;;
49540;SDS011;35432;43.566;1.398;2023-03-29T13:13:11;8.10;;;1.53;;
49540;SDS011;35432;43.566;1.398;2023-03-29T13:15:41;9.38;;;1.80;;
49540;SDS011;35432;43.566;1.398;2023-03-29T13:23:32;8.65;;;1.58;;
49540;SDS011;35432;43.566;1.398;2023-03-29T13:29:04;12.18;;;1.77;;
49540;SDS011;35432;43.566;1.398;2023-03-29T13:40:32;9.30;;;1.87;;
49540;SDS011;35432;43.566;1.398;2023-03-29T13:43:09;7.93;;;1.83;;
49540;SDS011;35432;43.566;1.398;2023-03-29T13:56:11;10.07;;;2.00;;
49540;SDS011;35432;43.566;1.398;2023-03-29T14:01:28;11.15;;;2.10;;
49540;SDS011;35432;43.566;1.398;2023-03-29T14:04:03;12.43;;;2.05;;
49540;SDS011;35432;43.566;1.398;2023-03-29T14:06:32;9.77;;;1.70;;
49540;SDS011;35432;43.566;1.398;2023-03-29T14:09:02;12.73;;;1.90;;
49540;SDS011;35432;43.566;1.398;2023-03-29T14:11:31;9.52;;;1.67;;
49540;SDS011;35432;43.566;1.398;2023-03-29T14:13:58;11.73;;;2.05;;
49540;SDS011;35432;43.566;1.398;2023-03-29T14:16:26;8.52;;;1.90;;
49540;SDS011;35432;43.566;1.398;2023-03-29T14:18:56;9.63;;;1.90;;
49540;SDS011;35432;43.566;1.398;2023-03-29T14:21:23;12.57;;;1.80;;
49540;SDS011;35432;43.566;1.398;2023-03-29T14:23:52;10.38;;;1.98;;
49540;SDS011;35432;43.566;1.398;2023-03-29T14:26:21;10.85;;;1.67;;
49540;SDS011;35432;43.566;1.398;2023-03-29T14:28:49;7.83;;;1.70;;
49540;SDS011;35432;43.566;1.398;2023-03-29T14:31:19;11.88;;;1.80;;
49540;SDS011;35432;43.566;1.398;2023-03-29T14:33:50;8.13;;;1.80;;
49540;SDS011;35432;43.566;1.398;2023-03-29T14:36:20;7.47;;;1.88;;
49540;SDS011;35432;43.566;1.398;2023-03-29T14:38:50;9.38;;;1.67;;
49540;SDS011;35432;43.566;1.398;2023-03-29T14:41:19;9.80;;;1.90;;
49540;SDS011;35432;43.566;1.398;2023-03-29T14:43:46;8.80;;;1.90;;
49540;SDS011;35432;43.566;1.398;2023-03-29T14:46:13;11.50;;;1.77;;
49540;SDS011;35432;43.566;1.398;2023-03-29T14:48:41;12.63;;;1.83;;
49540;SDS011;35432;43.566;1.398;2023-03-29T14:51:07;9.30;;;1.80;;
49540;SDS011;35432;43.566;1.398;2023-03-29T14:53:33;8.25;;;1.67;;
49540;SDS011;35432;43.566;1.398;2023-03-29T14:56:02;9.80;;;1.80;;
49540;SDS011;35432;43.566;1.398;2023-03-29T14:58:32;11.45;;;1.67;;
49540;SDS011;35432;43.566;1.398;2023-03-29T15:01:11;13.30;;;2.00;;
49540;SDS011;35432;43.566;1.398;2023-03-29T15:03:44;8.65;;;1.88;;
49540;SDS011;35432;43.566;1.398;2023-03-29T15:06:20;12.68;;;2.22;;
49540;SDS011;35432;43.566;1.398;2023-03-29T15:08:48;9.02;;;2.00;;
49540;SDS011;35432;43.566;1.398;2023-03-29T15:11:16;11.32;;;2.10;;
49540;SDS011;35432;43.566;1.398;2023-03-29T15:13:44;13.63;;;1.87;;
49540;SDS011;35432;43.566;1.398;2023-03-29T15:16:14;12.45;;;1.90;;
49540;SDS011;35432;43.566;1.398;2023-03-29T15:18:43;10.18;;;2.30;;
49540;SDS011;35432;43.566;1.398;2023-03-29T15:21:12;8.38;;;2.03;;
49540;SDS011;35432;43.566;1.398;2023-03-29T15:23:45;7.88;;;1.70;;
49540;SDS011;35432;43.566;1.398;2023-03-29T15:26:31;12.90;;;2.27;;
49540;SDS011;35432;43.566;1.398;2023-03-29T15:29:05;9.52;;;1.70;;
49540;SDS011;35432;43.566;1.398;2023-03-29T15:31:34;14.13;;;2.10;;
49540;SDS011;35432;43.566;1.398;2023-03-29T15:34:02;9.68;;;1.85;;
49540;SDS011;35432;43.566;1.398;2023-03-29T15:36:29;6.70;;;1.60;;
49540;SDS011;35432;43.566;1.398;2023-03-29T15:38:55;10.00;;;2.33;;
49540;SDS011;35432;43.566;1.398;2023-03-29T15:41:21;11.88;;;2.08;;
49540;SDS011;35432;43.566;1.398;2023-03-29T15:43:47;7.77;;;1.80;;
49540;SDS011;35432;43.566;1.398;2023-03-29T15:46:12;9.55;;;2.00;;
49540;SDS011;35432;43.566;1.398;2023-03-29T15:48:38;8.90;;;2.23;;
49540;SDS011;35432;43.566;1.398;2023-03-29T15:51:04;13.07;;;2.50;;
49540;SDS011;35432;43.566;1.398;2023-03-29T15:53:29;10.45;;;2.28;;
49540;SDS011;35432;43.566;1.398;2023-03-29T15:55:57;10.13;;;2.20;;
49540;SDS011;35432;43.566;1.398;2023-03-29T15:58:26;15.05;;;2.60;;
49540;SDS011;35432;43.566;1.398;2023-03-29T16:00:57;11.77;;;2.30;;
49540;SDS011;35432;43.566;1.398;2023-03-29T16:03:43;8.45;;;1.88;;
49540;SDS011;35432;43.566;1.398;2023-03-29T16:06:11;9.97;;;2.50;;
49540;SDS011;35432;43.566;1.398;2023-03-29T16:08:37;9.25;;;1.73;;
49540;SDS011;35432;43.566;1.398;2023-03-29T16:11:03;9.57;;;2.13;;
49540;SDS011;35432;43.566;1.398;2023-03-29T16:13:30;9.87;;;2.33;;
49540;SDS011;35432;43.566;1.398;2023-03-29T16:15:56;8.88;;;1.70;;
49540;SDS011;35432;43.566;1.398;2023-03-29T16:18:21;15.93;;;2.97;;
49540;SDS011;35432;43.566;1.398;2023-03-29T16:20:46;10.83;;;2.17;;
49540;SDS011;35432;43.566;1.398;2023-03-29T16:23:12;10.07;;;2.03;;
49540;SDS011;35432;43.566;1.398;2023-03-29T16:25:38;9.27;;;1.80;;
49540;SDS011;35432;43.566;1.398;2023-03-29T16:28:07;14.93;;;2.50;;
49540;SDS011;35432;43.566;1.398;2023-03-29T16:30:34;14.30;;;2.75;;
49540;SDS011;35432;43.566;1.398;2023-03-29T16:33:01;9.85;;;2.10;;
49540;SDS011;35432;43.566;1.398;2023-03-29T16:35:33;8.27;;;1.92;;
49540;SDS011;35432;43.566;1.398;2023-03-29T16:38:03;10.48;;;2.80;;
49540;SDS011;35432;43.566;1.398;2023-03-29T16:40:29;12.70;;;2.60;;
49540;SDS011;35432;43.566;1.398;2023-03-29T16:42:55;10.87;;;2.20;;
49540;SDS011;35432;43.566;1.398;2023-03-29T16:45:20;9.32;;;2.03;;
49540;SDS011;35432;43.566;1.398;2023-03-29T16:47:45;13.93;;;2.17;;
49540;SDS011;35432;43.566;1.398;2023-03-29T16:50:12;13.20;;;1.90;;
49540;SDS011;35432;43.566;1.398;2023-03-29T16:52:39;9.75;;;2.10;;
49540;SDS011;35432;43.566;1.398;2023-03-29T16:55:05;11.07;;;2.40;;
49540;SDS011;35432;43.566;1.398;2023-03-29T16:57:31;11.43;;;2.35;;
49540;SDS011;35432;43.566;1.398;2023-03-29T16:59:57;11.37;;;2.40;;
49540;SDS011;35432;43.566;1.398;2023-03-29T17:02:23;13.23;;;3.47;;
49540;SDS011;35432;43.566;1.398;2023-03-29T17:04:48;12.73;;;4.20;;
49540;SDS011;35432;43.566;1.398;2023-03-29T17:07:13;17.23;;;5.70;;
49540;SDS011;35432;43.566;1.398;2023-03-29T17:09:39;21.03;;;7.27;;